Los Alamos, NM (87544)

2:19 AM MDT on November 01, 2014 (GMT -0600)
Alta Vista in White Rock | Change Station
CLOSE
Current Station
Personal Weather Station
Location: White Rock, NM
Elevation: 6572 ft
Nearby Weather Stations

Elev 6572 ft 35.82 °N, 106.22 °W | Updated 10 seconds ago

Mostly Cloudy
Mostly Cloudy
47.5 °F
Feels Like 46 °F
N
4.6
Wind Variable Wind from SSW
Gusts 4.6 mph

Today
High -- | Low -- °F
--% Chance of Precip.
Yesterday
High -- | Low -- °F
Precip. -- in
7:27 AM 6:09 PM
Waxing Gibbous, 64% visible
Pressure 30.29 in
Visibility 10.0 miles
Clouds Mostly Cloudy 5000 ft
Mostly Cloudy 10000 ft
Windchill 46 °F
Dew Point 33 °F
Humidity 56%
Rainfall 0.00 in
Snow Depth Not available.
UV 0 out of 12
Pollen 3.40 out of 12
Air Quality Not available.
Flu Activity Not available.
METAR KLAM 010755Z AUTO 19003KT 10SM BKN050 BKN100 07/00 A3029 RMK AO2 T00721005

More Conditions Fewer Conditions

Pressure 30.29 in
Visibility 10.0 miles
Clouds Mostly Cloudy 5000 ft
Mostly Cloudy 10000 ft
Windchill 46 °F
Dew Point 33 °F
Humidity 56%
Rainfall 0.00 in
Snow Depth Not available.
UV 0 out of 12
Pollen 3.40 out of 12
Air Quality Not available.
Flu Activity Not available.
METAR KLAM 010755Z AUTO 19003KT 10SM BKN050 BKN100 07/00 A3029 RMK AO2 T00721005

More Conditions Fewer Conditions

Nowcast | as of 1:34 am MDT on November 1, 2014

Through the late night hours...isolated showers and perhaps a short lived thunderstorm will continue to move to the northeast at a speed near 30 mph across central and northwest New Mexico. Light to briefly moderate rainfall...gusty winds up to 30 mph...and a lightning strike or two will be possible with the stronger activity. The snow level should vary around 10000 feet with a dusting possible above that level in some spots by 330 am. Spotty rain amounts will generally vary from a trace up to a tenth of an inch.

×

10-Day Weather Forecast

Almanac

Astronomy

Nov. 01, 2014 Rise Set
Actual Time
Civil Twilight
Nautical Twilight
Astronomical Twilight
Moon
Length of Visible Light
Length of Day
Tomorrow will be .
, % of the Moon is Illuminated

Today's Extremes

State Highs State Lows

Community

WunderPhotos

Upload Photos

1,766,866 photos uploaded!

WunderBlogs® & News

Nearby

Air Quality

  Air Quality AQ Index Pollutant
Not available.

Snow Depth

Station Depth Elevation

Earthquake Activity

City Distance Mag. Time & Date
Minimum magnitude displayed is 2.5.

Coastal Water Temperatures

Place Temperature

Nearby Weather Stations